Terminal Aerodrome Forecast
Issued by NWS Charleston, WV

Current Version | Previous Version | Graphics & Text | Print | Product List | Glossary On
Versions: 1 2 3 4 5 6 7 8 9 10 11 12 13 14 15 16 17 18 19 20 21 22 23 24 25 26 27 28 29 30 31 32
975
FTUS41 KRLX 270618 CCA
TAFEKN
TAF COR
KEKN 270618Z 2706/2806 00000KT 5SM BR SKC
     FM270615 00000KT 1/4SM FG VV001
     FM271200 00000KT 5SM BR BKN003
     FM271300 VRB03KT P6SM FEW035
     FM271700 15003KT P6SM SCT050=

USA.gov is the U.S. government's official web portal to all federal, state and local government web resources and services.